Time;durP1;ratioP1;P1;durP2;ratioP2;P2;SDS_P1;SDS_P2;PMS_P1;PMS_P2;Temp;Humidity;BMP_temperature;BMP_pressure;BME280_temperature;BME280_humidity;BME280_pressure;Samples;Min_cycle;Max_cycle;Signal;HPM_P1;HPM_P2
2021/12/05 00:19:37;;;;;;;18.02;13.75;;;;;;;-0.29;100.00;99647.28;4875739;29;20044;-76
2021/12/05 00:22:13;;;;;;;16.38;12.25;;;;;;;-0.26;100.00;99647.09;4876040;29;20046;-77
2021/12/05 00:24:46;;;;;;;16.15;12.38;;;;;;;-0.29;100.00;99642.94;4887852;29;20033;-76
2021/12/05 00:27:19;;;;;;;16.83;12.93;;;;;;;-0.26;100.00;99653.06;4876470;29;20104;-77
2021/12/05 00:29:59;;;;;;;15.90;12.63;;;;;;;-0.24;100.00;99663.25;4877985;29;20396;-76
2021/12/05 00:43:25;;;;;;;15.90;12.82;;;;;;;-0.10;100.00;99675.19;4873035;29;20036;-76
2021/12/05 00:46:16;;;;;;;16.92;13.48;;;;;;;-0.14;100.00;99682.31;4891421;29;20051;-75
2021/12/05 00:51:51;;;;;;;16.73;13.63;;;;;;;-0.08;100.00;99688.81;4874825;29;20969;-77
2021/12/05 01:05:15;;;;;;;19.08;15.68;;;;;;;-0.07;100.00;99701.59;4889583;29;20100;-77
2021/12/05 01:07:55;;;;;;;21.35;15.23;;;;;;;-0.01;100.00;99700.38;4889341;29;20553;-76
2021/12/05 01:15:56;;;;;;;22.10;17.00;;;;;;;-0.04;100.00;99710.88;4885578;29;20507;-76
2021/12/05 01:18:23;;;;;;;22.15;16.45;;;;;;;-0.05;100.00;99715.22;4887734;29;20048;-75
2021/12/05 01:20:56;;;;;;;23.35;17.92;;;;;;;-0.04;100.00;99714.28;4873996;29;20074;-76
2021/12/05 01:26:19;;;;;;;22.88;16.83;;;;;;;-0.05;100.00;99702.31;4879643;29;20504;-76
2021/12/05 01:29:16;;;;;;;23.40;17.27;;;;;;;-0.06;100.00;99723.03;4870558;29;20040;-77
2021/12/05 01:34:20;;;;;;;21.60;16.88;;;;;;;0.03;100.00;99717.25;4878404;29;20036;-76
2021/12/05 01:55:49;;;;;;;23.33;17.83;;;;;;;0.01;100.00;99737.19;4890558;29;20041;-75
2021/12/05 02:09:36;;;;;;;26.38;19.27;;;;;;;0.00;100.00;99732.97;4874119;29;20036;-76
2021/12/05 02:36:24;;;;;;;29.65;20.33;;;;;;;-0.06;100.00;99747.09;4893610;29;20032;-76
2021/12/05 02:41:34;;;;;;;30.23;21.58;;;;;;;-0.03;100.00;99756.38;4891561;29;20052;-75
2021/12/05 02:44:05;;;;;;;33.88;21.70;;;;;;;-0.07;100.00;99755.75;4879317;29;20124;-76
2021/12/05 02:46:31;;;;;;;31.63;21.23;;;;;;;-0.08;100.00;99756.66;4890940;29;20084;-76
2021/12/05 02:49:01;;;;;;;33.08;22.17;;;;;;;-0.01;100.00;99764.81;4864638;29;20098;-76
2021/12/05 02:51:28;;;;;;;36.15;22.27;;;;;;;-0.03;100.00;99764.09;4889773;29;20040;-76
2021/12/05 02:56:32;;;;;;;33.42;23.38;;;;;;;0.01;100.00;99767.28;4890758;29;20037;-75
2021/12/05 02:59:06;;;;;;;33.03;22.70;;;;;;;0.01;100.00;99769.88;4889997;29;20075;-76
2021/12/05 03:01:43;;;;;;;33.17;23.70;;;;;;;0.06;100.00;99773.78;4891974;29;20047;-75
2021/12/05 03:04:09;;;;;;;36.67;24.17;;;;;;;-0.04;100.00;99765.00;4874589;29;20040;-76
2021/12/05 03:06:36;;;;;;;39.17;24.35;;;;;;;-0.03;100.00;99771.84;4891799;29;20048;-76
2021/12/05 03:09:09;;;;;;;38.35;24.15;;;;;;;-0.01;100.00;99765.63;4893955;29;20035;-76
2021/12/05 03:11:35;;;;;;;42.17;24.60;;;;;;;0.02;100.00;99772.34;4890815;29;20120;-76
2021/12/05 03:14:01;;;;;;;40.75;25.15;;;;;;;-0.06;100.00;99770.28;4878145;29;20052;-75
2021/12/05 03:16:31;;;;;;;42.30;25.20;;;;;;;-0.03;100.00;99766.69;4875001;29;20393;-75
2021/12/05 03:18:56;;;;;;;42.58;24.67;;;;;;;-0.04;100.00;99765.00;4874516;29;20041;-76
2021/12/05 03:21:22;;;;;;;47.88;26.30;;;;;;;-0.08;100.00;99768.72;4891209;29;20105;-74
2021/12/05 03:23:51;;;;;;;41.97;25.48;;;;;;;-0.11;100.00;99766.38;4890474;29;20107;-75
2021/12/05 03:26:21;;;;;;;46.40;25.83;;;;;;;-0.05;100.00;99771.94;4863831;29;20471;-75
2021/12/05 03:28:49;;;;;;;46.03;26.08;;;;;;;-0.03;100.00;99771.84;4876163;29;20040;-75
2021/12/05 03:31:17;;;;;;;39.95;25.33;;;;;;;-0.02;100.00;99776.03;4874233;29;20052;-75
2021/12/05 03:33:43;;;;;;;44.95;26.25;;;;;;;-0.04;100.00;99775.31;4891801;29;20079;-75
2021/12/05 03:36:10;;;;;;;42.85;25.70;;;;;;;-0.02;100.00;99784.63;4876638;29;20328;-75
2021/12/05 03:38:40;;;;;;;39.55;25.75;;;;;;;0.03;100.00;99789.47;4891997;29;20389;-76
2021/12/05 03:41:11;;;;;;;41.65;25.50;;;;;;;-0.01;100.00;99786.25;4875271;29;20044;-75
2021/12/05 03:43:41;;;;;;;49.78;26.42;;;;;;;-0.02;100.00;99794.94;4877331;29;20775;-74
2021/12/05 03:46:09;;;;;;;47.83;26.58;;;;;;;0.01;100.00;99793.91;4877187;29;20047;-74
2021/12/05 03:48:39;;;;;;;49.00;26.55;;;;;;;0.00;100.00;99800.00;4891179;29;20088;-75
2021/12/05 03:51:09;;;;;;;51.83;27.80;;;;;;;-0.04;100.00;99795.94;4884384;29;20763;-75
2021/12/05 03:53:36;;;;;;;53.58;28.13;;;;;;;-0.04;100.00;99791.63;4866468;29;20036;-76
2021/12/05 03:56:05;;;;;;;53.05;27.50;;;;;;;0.00;100.00;99797.41;4876449;29;20108;-77
2021/12/05 03:58:31;;;;;;;49.25;26.27;;;;;;;-0.06;100.00;99796.06;4887966;29;20108;-75
2021/12/05 04:01:00;;;;;;;55.35;27.80;;;;;;;-0.04;100.00;99804.53;4876518;29;20040;-75
2021/12/05 04:03:29;;;;;;;51.75;27.88;;;;;;;-0.05;100.00;99796.91;4875410;29;20040;-74
2021/12/05 04:05:58;;;;;;;50.53;27.30;;;;;;;-0.02;100.00;99804.41;4882696;29;20046;-74
2021/12/05 04:08:29;;;;;;;50.92;26.58;;;;;;;0.01;100.00;99801.63;4872311;29;20049;-75
2021/12/05 04:10:59;;;;;;;56.13;27.20;;;;;;;0.01;100.00;99808.56;4890179;29;20064;-74
2021/12/05 04:13:29;;;;;;;56.25;27.17;;;;;;;-0.05;100.00;99822.66;4903523;29;20044;-74
2021/12/05 04:16:00;;;;;;;62.25;29.13;;;;;;;-0.03;100.00;99829.38;4898238;29;20119;-75
2021/12/05 04:18:27;;;;;;;60.20;28.67;;;;;;;-0.05;100.00;99831.22;4878710;29;20115;-76
2021/12/05 04:20:53;;;;;;;58.05;28.42;;;;;;;-0.02;100.00;99840.50;4876860;29;20040;-74
2021/12/05 04:23:19;;;;;;;54.55;27.25;;;;;;;0.02;100.00;99848.84;4871928;29;20049;-75
2021/12/05 04:25:48;;;;;;;66.40;29.52;;;;;;;-0.06;100.00;99842.47;4878078;29;20036;-74
2021/12/05 04:28:16;;;;;;;63.85;28.83;;;;;;;-0.02;100.00;99851.66;4874963;29;20044;-74
2021/12/05 04:30:42;;;;;;;66.38;29.42;;;;;;;0.01;100.00;99849.81;4891550;29;20047;-78
2021/12/05 04:33:07;;;;;;;68.70;30.02;;;;;;;0.02;100.00;99864.31;4876155;29;20048;-74
2021/12/05 04:35:33;;;;;;;68.25;29.58;;;;;;;-0.02;100.00;99861.97;4889933;29;20044;-75
2021/12/05 04:37:59;;;;;;;69.00;30.52;;;;;;;0.00;100.00;99864.47;4893149;29;20036;-76
2021/12/05 04:40:25;;;;;;;72.25;30.88;;;;;;;0.05;100.00;99869.31;4876276;29;20041;-76
2021/12/05 04:42:51;;;;;;;65.57;28.75;;;;;;;-0.01;100.00;99866.19;4879061;29;20034;-76
2021/12/05 04:45:23;;;;;;;65.65;30.70;;;;;;;0.04;100.00;99873.63;4871922;29;20464;-76
2021/12/05 04:47:51;;;;;;;72.68;29.95;;;;;;;-0.05;100.00;99866.50;4861971;29;20046;-76
2021/12/05 04:50:19;;;;;;;72.28;30.25;;;;;;;-0.03;100.00;99872.38;4875941;29;20767;-77
2021/12/05 04:52:47;;;;;;;85.88;31.00;;;;;;;-0.08;100.00;99874.44;4880650;29;20385;-76
2021/12/05 04:55:15;;;;;;;83.85;30.25;;;;;;;-0.10;100.00;99874.50;4871043;29;20739;-76
2021/12/05 04:57:42;;;;;;;75.78;29.42;;;;;;;-0.04;100.00;99875.88;4862247;29;20839;-77
2021/12/05 05:00:17;;;;;;;75.28;31.63;;;;;;;0.04;100.00;99888.25;4876379;29;20044;-77
2021/12/05 05:02:43;;;;;;;82.00;32.80;;;;;;;0.04;100.00;99901.16;4877454;29;20131;-77
2021/12/05 05:05:10;;;;;;;88.70;32.58;;;;;;;0.01;100.00;99903.94;4870790;29;20140;-76
2021/12/05 05:07:39;;;;;;;84.97;31.95;;;;;;;0.07;100.00;99906.94;4876970;29;20041;-76
2021/12/05 05:10:11;;;;;;;84.53;31.67;;;;;;;0.05;100.00;99908.78;4890854;29;20048;-77
2021/12/05 05:12:37;;;;;;;86.07;31.87;;;;;;;0.02;100.00;99911.59;4882615;29;20115;-77
2021/12/05 05:15:04;;;;;;;93.97;33.67;;;;;;;0.02;100.00;99915.91;4888633;29;20403;-76
2021/12/05 05:17:30;;;;;;;92.18;33.72;;;;;;;0.01;100.00;99912.50;4891750;29;20040;-76
2021/12/05 05:20:00;;;;;;;88.40;33.17;;;;;;;0.03;100.00;99912.41;4891683;29;20044;-77
2021/12/05 05:22:45;;;;;;;95.22;34.78;;;;;;;0.06;100.00;99922.50;4891720;29;20763;-77
2021/12/05 05:25:42;;;;;;;97.10;34.70;;;;;;;0.03;100.00;99917.56;4879987;29;20049;-77
2021/12/05 05:39:07;;;;;;;94.90;34.17;;;;;;;0.12;100.00;99922.94;4873798;29;20036;-76
2021/12/05 05:46:55;;;;;;;92.95;33.80;;;;;;;-0.01;100.00;99947.88;4884439;29;20033;-77
2021/12/05 05:49:35;;;;;;;85.80;33.53;;;;;;;0.08;100.00;99952.44;4882340;29;20487;-76
2021/12/05 05:52:03;;;;;;;87.38;33.65;;;;;;;-0.01;100.00;99955.59;4877901;29;20051;-77
2021/12/05 05:54:29;;;;;;;87.53;32.58;;;;;;;0.03;100.00;99957.06;4872343;29;20044;-77
2021/12/05 05:57:03;;;;;;;88.18;34.58;;;;;;;0.05;100.00;99965.53;4877643;29;20069;-77
2021/12/05 05:59:39;;;;;;;82.30;34.10;;;;;;;0.04;100.00;99968.19;4857881;29;20037;-77
2021/12/05 06:04:36;;;;;;;80.95;32.72;;;;;;;0.05;100.00;99972.44;4877439;29;20037;-76
2021/12/05 06:07:02;;;;;;;82.53;32.75;;;;;;;0.06;100.00;99966.34;4875378;29;20632;-75
2021/12/05 06:09:28;;;;;;;75.28;31.60;;;;;;;0.02;100.00;99965.75;4877864;29;20047;-77
2021/12/05 06:11:53;;;;;;;71.90;31.90;;;;;;;0.02;100.00;99970.91;4880989;29;20503;-77
2021/12/05 06:14:19;;;;;;;70.03;30.38;;;;;;;0.01;100.00;99968.41;4870162;29;20043;-74
2021/12/05 06:16:45;;;;;;;69.82;31.05;;;;;;;0.02;100.00;99978.63;4862522;29;20045;-76
2021/12/05 06:19:12;;;;;;;66.68;28.75;;;;;;;0.01;100.00;99982.13;4862303;29;20044;-75
2021/12/05 06:21:37;;;;;;;70.25;31.00;;;;;;;0.01;100.00;99984.69;4880312;29;20097;-77
2021/12/05 06:24:04;;;;;;;69.32;29.27;;;;;;;-0.04;100.00;99979.84;4894626;29;20052;-75
2021/12/05 06:26:30;;;;;;;67.53;29.35;;;;;;;-0.06;100.00;99989.44;4891881;29;20045;-76
2021/12/05 06:29:15;;;;;;;70.25;30.58;;;;;;;-0.04;100.00;99986.72;4894753;29;20137;-76
2021/12/05 06:31:57;;;;;;;60.85;28.98;;;;;;;-0.06;100.00;99986.00;4880957;29;20215;-75
2021/12/05 06:47:30;;;;;;;56.33;27.80;;;;;;;-0.05;100.00;100018.63;4894785;29;20041;-76
2021/12/05 06:49:56;;;;;;;57.78;26.90;;;;;;;-0.08;100.00;100014.47;4871225;29;20108;-76
2021/12/05 06:52:23;;;;;;;56.95;27.38;;;;;;;-0.11;100.00;100016.44;4894093;29;20045;-77
2021/12/05 06:54:50;;;;;;;55.72;26.80;;;;;;;-0.05;100.00;100021.19;4887183;29;20044;-77
2021/12/05 06:57:17;;;;;;;49.90;26.63;;;;;;;-0.04;100.00;100033.16;4888039;29;20044;-76
2021/12/05 06:59:45;;;;;;;54.97;28.05;;;;;;;-0.09;100.00;100037.78;4862544;29;20056;-76
2021/12/05 07:02:13;;;;;;;53.03;26.75;;;;;;;-0.13;100.00;100049.19;4892997;29;20106;-76
2021/12/05 07:07:28;;;;;;;49.15;26.35;;;;;;;-0.10;100.00;100044.66;4879654;29;20040;-77
2021/12/05 07:09:54;;;;;;;49.80;26.60;;;;;;;-0.08;100.00;100055.72;4877484;29;20044;-77
2021/12/05 07:15:07;;;;;;;46.55;25.75;;;;;;;-0.08;100.00;100060.88;4881346;29;20135;-76
2021/12/05 07:20:38;;;;;;;46.47;26.52;;;;;;;-0.09;100.00;100071.28;4874693;29;20040;-75
2021/12/05 07:23:22;;;;;;;43.05;24.23;;;;;;;-0.11;100.00;100075.72;4894443;29;20059;-75
2021/12/05 07:25:54;;;;;;;43.22;24.60;;;;;;;-0.15;100.00;100074.22;4877232;29;20032;-77
2021/12/05 07:42:09;;;;;;;32.22;21.08;;;;;;;-0.11;100.00;100094.59;4875039;29;20043;-76
2021/12/05 07:44:35;;;;;;;31.92;21.02;;;;;;;-0.14;100.00;100112.00;4893585;29;20035;-77
2021/12/05 07:47:01;;;;;;;31.33;20.80;;;;;;;-0.13;100.00;100114.47;4880193;29;20033;-76
2021/12/05 07:49:27;;;;;;;29.67;19.77;;;;;;;-0.12;100.00;100110.97;4875642;29;20049;-76
2021/12/05 07:51:53;;;;;;;32.95;20.67;;;;;;;-0.18;100.00;100124.22;4880669;29;20076;-76
2021/12/05 08:16:09;;;;;;;33.45;20.63;;;;;;;-0.09;100.00;100154.63;4873587;29;20044;-76
2021/12/05 08:18:35;;;;;;;29.15;19.58;;;;;;;-0.06;100.00;100169.06;4893457;29;20049;-76
2021/12/05 08:21:04;;;;;;;31.17;20.98;;;;;;;-0.06;100.00;100174.22;4880900;29;20044;-76
2021/12/05 08:23:30;;;;;;;33.58;20.10;;;;;;;-0.09;100.00;100174.41;4866224;29;20079;-76
2021/12/05 08:26:09;;;;;;;32.28;20.88;;;;;;;-0.10;100.00;100172.75;4891727;29;20191;-77
2021/12/05 08:33:56;;;;;;;30.27;20.40;;;;;;;-0.03;100.00;100195.50;4872873;29;20120;-76
2021/12/05 09:23:23;;;;;;;31.02;19.80;;;;;;;-0.03;100.00;100274.59;4879663;29;20037;-78
2021/12/05 09:53:29;;;;;;;32.17;20.00;;;;;;;-0.22;100.00;100311.75;4903088;29;20452;-76
2021/12/05 10:12:12;;;;;;;30.23;18.80;;;;;;;-0.20;100.00;100338.28;4898290;29;20036;-76
2021/12/05 10:14:54;;;;;;;25.95;18.10;;;;;;;-0.16;100.00;100343.25;4889401;29;20288;-75
2021/12/05 10:17:56;;;;;;;28.13;18.25;;;;;;;-0.17;100.00;100339.88;4877843;29;20044;-77
2021/12/05 10:20:27;;;;;;;24.35;17.35;;;;;;;-0.15;100.00;100337.19;4895488;29;20048;-76
2021/12/05 10:37:18;;;;;;;23.70;16.85;;;;;;;0.07;100.00;100347.91;4882481;29;20035;-78
2021/12/05 10:39:45;;;;;;;26.05;17.90;;;;;;;0.17;100.00;100353.38;4885634;29;20771;-77
2021/12/05 10:43:01;;;;;;;26.05;17.92;;;;;;;0.21;100.00;100357.44;4864452;29;20135;-77
2021/12/05 10:45:29;;;;;;;26.13;17.60;;;;;;;0.29;100.00;100365.56;4891402;29;20053;-77
2021/12/05 10:47:58;;;;;;;29.13;19.65;;;;;;;0.29;100.00;100362.16;4883866;29;20051;-77
2021/12/05 10:50:45;;;;;;;32.88;18.85;;;;;;;0.34;100.00;100370.44;4872165;29;20040;-76
2021/12/05 10:53:17;;;;;;;31.38;20.23;;;;;;;0.42;100.00;100376.00;4892549;29;20039;-77
2021/12/05 10:55:42;;;;;;;29.63;19.75;;;;;;;0.50;100.00;100378.94;4887102;29;20051;-76
2021/12/05 10:58:08;;;;;;;27.45;19.05;;;;;;;0.53;100.00;100380.53;4893155;29;20040;-77
2021/12/05 11:00:34;;;;;;;28.70;20.23;;;;;;;0.56;100.00;100388.06;4877420;29;20052;-77
2021/12/05 11:03:17;;;;;;;30.85;20.05;;;;;;;0.63;100.00;100389.38;4863176;29;20104;-76
2021/12/05 11:05:44;;;;;;;30.70;20.27;;;;;;;0.60;100.00;100388.72;4894077;29;20048;-76
2021/12/05 11:08:30;;;;;;;31.05;21.20;;;;;;;0.69;100.00;100393.34;4874037;29;20036;-76
2021/12/05 11:11:13;;;;;;;30.55;21.25;;;;;;;0.66;100.00;100396.09;4873740;29;20048;-75
2021/12/05 11:13:40;;;;;;;;;;;;;;;0.67;100.00;100398.59;4891887;29;20083;-76
2021/12/05 11:16:37;;;;;;;32.20;22.30;;;;;;;0.67;100.00;100406.34;4874215;29;19922;-76
2021/12/05 11:19:35;;;;;;;36.20;22.48;;;;;;;0.64;100.00;100403.97;4877848;29;20460;-77
2021/12/05 11:22:06;;;;;;;32.47;21.60;;;;;;;0.67;100.00;100416.66;4873005;29;20068;-76
2021/12/05 11:24:37;;;;;;;36.75;23.92;;;;;;;0.69;100.00;100409.66;4876129;29;20048;-76
2021/12/05 11:27:06;;;;;;;30.83;22.33;;;;;;;0.76;100.00;100405.78;4875358;29;20037;-76
2021/12/05 11:29:41;;;;;;;32.97;21.80;;;;;;;0.71;100.00;100419.91;4889360;29;20948;-75
2021/12/05 11:32:13;;;;;;;33.92;23.88;;;;;;;0.67;100.00;100418.41;4890398;29;20044;-77
2021/12/05 11:34:38;;;;;;;38.42;24.88;;;;;;;0.70;100.00;100413.91;4887638;29;20040;-77
2021/12/05 11:37:04;;;;;;;36.40;23.88;;;;;;;0.73;100.00;100418.88;4854182;29;20037;-76
2021/12/05 11:39:30;;;;;;;39.20;24.52;;;;;;;0.72;100.00;100422.41;4879719;29;20075;-75
2021/12/05 11:41:56;;;;;;;36.88;24.13;;;;;;;0.74;100.00;100420.53;4878051;29;20484;-75
2021/12/05 11:44:24;;;;;;;35.67;24.30;;;;;;;0.74;100.00;100430.88;4884975;29;20052;-75
2021/12/05 11:46:50;;;;;;;32.63;24.02;;;;;;;0.81;100.00;100427.91;4861038;29;20081;-76
2021/12/05 11:49:21;;;;;;;35.95;24.10;;;;;;;0.77;100.00;100429.84;4877163;29;20049;-76
2021/12/05 11:51:56;;;;;;;34.08;23.42;;;;;;;0.80;100.00;100431.44;4879825;29;20542;-76
2021/12/05 11:54:28;;;;;;;36.25;24.48;;;;;;;0.77;100.00;100432.44;4863013;29;20048;-76
2021/12/05 11:57:24;;;;;;;38.47;25.70;;;;;;;0.74;100.00;100436.03;4888697;29;20038;-75
2021/12/05 11:59:51;;;;;;;38.28;24.85;;;;;;;0.75;100.00;100432.53;4876735;29;20512;-77
2021/12/05 12:02:19;;;;;;;34.88;24.05;;;;;;;0.76;100.00;100439.34;4877113;29;20431;-76
2021/12/05 12:05:23;;;;;;;35.85;24.00;;;;;;;0.74;100.00;100438.63;4860504;29;20029;-76
2021/12/05 12:08:05;;;;;;;34.92;23.45;;;;;;;0.81;100.00;100440.81;4866039;29;20052;-76
2021/12/05 12:10:41;;;;;;;35.40;24.33;;;;;;;0.79;100.00;100440.91;4877814;29;20036;-76
2021/12/05 12:13:11;;;;;;;36.28;24.23;;;;;;;0.84;100.00;100446.63;4876641;29;20813;-76
2021/12/05 12:15:41;;;;;;;38.00;25.33;;;;;;;0.87;100.00;100450.81;4894648;29;20029;-76
2021/12/05 12:18:17;;;;;;;36.72;24.70;;;;;;;0.87;100.00;100437.91;4877074;29;20024;-76
2021/12/05 12:20:46;;;;;;;33.78;23.55;;;;;;;0.93;100.00;100446.09;4866051;29;20099;-76
2021/12/05 12:23:15;;;;;;;34.78;23.70;;;;;;;0.88;100.00;100448.13;4894321;29;20162;-77
2021/12/05 12:25:45;;;;;;;34.50;23.70;;;;;;;0.88;100.00;100442.94;4876394;29;20131;-76
2021/12/05 12:28:12;;;;;;;34.00;23.98;;;;;;;0.88;100.00;100442.94;4861244;29;20400;-77
2021/12/05 12:30:48;;;;;;;36.67;24.60;;;;;;;0.86;100.00;100449.97;4893344;29;20130;-76
2021/12/05 12:33:28;;;;;;;34.95;24.08;;;;;;;0.86;100.00;100452.53;4893690;29;20040;-76
2021/12/05 12:35:54;;;;;;;35.47;24.10;;;;;;;0.82;100.00;100453.66;4893446;29;20462;-76
2021/12/05 12:38:23;;;;;;;38.55;25.75;;;;;;;0.84;100.00;100444.06;4875537;29;20033;-76
2021/12/05 12:40:58;;;;;;;37.38;24.73;;;;;;;0.83;100.00;100455.34;4875912;29;20039;-76
2021/12/05 12:43:42;;;;;;;39.65;26.67;;;;;;;0.83;100.00;100452.75;4868008;29;20082;-76
2021/12/05 12:46:36;;;;;;;38.53;25.52;;;;;;;0.80;100.00;100457.25;4886962;29;20044;-76
2021/12/05 12:49:14;;;;;;;37.53;25.00;;;;;;;0.80;100.00;100463.25;4875342;29;20127;-76
2021/12/05 12:51:51;;;;;;;37.88;25.83;;;;;;;0.79;100.00;100464.16;4876233;29;20072;-76
2021/12/05 12:54:26;;;;;;;39.35;26.73;;;;;;;0.76;100.00;100472.91;4876549;29;20113;-76
2021/12/05 12:57:22;;;;;;;43.85;28.40;;;;;;;0.73;100.00;100467.94;4877502;29;20040;-76
2021/12/05 12:59:56;;;;;;;41.13;28.10;;;;;;;0.72;100.00;100468.88;4878565;29;20123;-76
2021/12/05 13:02:36;;;;;;;45.15;28.63;;;;;;;0.66;100.00;100478.69;4884412;29;20840;-76
2021/12/05 13:05:39;;;;;;;44.13;28.63;;;;;;;0.74;100.00;100479.09;4880505;29;20116;-76
2021/12/05 13:11:11;;;;;;;44.28;29.15;;;;;;;0.73;100.00;100487.75;4888327;29;20041;-76
2021/12/05 13:13:39;;;;;;;46.22;30.05;;;;;;;0.66;100.00;100492.47;4881255;29;20088;-75
2021/12/05 13:16:13;;;;;;;50.47;30.83;;;;;;;0.69;100.00;100494.84;4894731;29;20032;-76
2021/12/05 13:18:41;;;;;;;44.38;29.10;;;;;;;0.61;100.00;100491.06;4867125;29;20123;-75
2021/12/05 13:21:08;;;;;;;47.40;30.60;;;;;;;0.66;100.00;100495.03;4881348;29;20124;-76
2021/12/05 13:23:40;;;;;;;45.42;29.55;;;;;;;0.67;100.00;100498.44;4880730;29;20044;-76
2021/12/05 13:26:12;;;;;;;44.88;29.50;;;;;;;0.66;100.00;100505.38;4872230;29;20085;-76
2021/12/05 13:29:04;;;;;;;45.42;30.23;;;;;;;0.63;100.00;100507.28;4892961;29;20042;-77
2021/12/05 13:31:32;;;;;;;48.55;31.00;;;;;;;0.64;100.00;100509.78;4877412;29;20119;-76
2021/12/05 13:34:14;;;;;;;50.50;32.38;;;;;;;0.61;100.00;100517.69;4894322;29;20040;-76
2021/12/05 13:36:42;;;;;;;48.03;31.33;;;;;;;0.61;100.00;100520.28;4894970;29;20056;-76
2021/12/05 13:39:36;;;;;;;48.85;31.42;;;;;;;0.63;100.00;100523.59;4865457;29;20295;-76
2021/12/05 13:42:02;;;;;;;51.40;32.10;;;;;;;0.60;100.00;100523.78;4864523;29;20040;-75
2021/12/05 13:44:59;;;;;;;49.90;31.77;;;;;;;0.57;100.00;100521.38;4863020;29;20619;-75
2021/12/05 13:47:43;;;;;;;52.85;32.38;;;;;;;0.62;100.00;100518.53;4868110;29;20514;-76
2021/12/05 13:50:25;;;;;;;51.15;31.98;;;;;;;0.60;100.00;100531.50;4866339;29;20033;-76
2021/12/05 13:53:01;;;;;;;52.75;33.30;;;;;;;0.58;100.00;100526.47;4886314;29;20045;-75
2021/12/05 13:55:53;;;;;;;51.92;33.80;;;;;;;0.54;100.00;100524.94;4873902;29;20916;-74
2021/12/05 13:58:35;;;;;;;52.80;33.15;;;;;;;0.62;100.00;100537.41;4893496;29;20096;-75
2021/12/05 14:01:10;;;;;;;53.42;34.30;;;;;;;0.61;100.00;100542.69;4873657;29;20051;-75
2021/12/05 14:04:10;;;;;;;54.03;34.75;;;;;;;0.66;100.00;100550.97;4876838;29;20507;-76
2021/12/05 14:06:38;;;;;;;58.20;36.53;;;;;;;0.55;100.00;100559.34;4873240;29;20036;-76
2021/12/05 14:09:25;;;;;;;61.45;38.17;;;;;;;0.59;100.00;100558.25;4862380;29;20051;-76
2021/12/05 14:12:03;;;;;;;62.63;37.40;;;;;;;0.53;100.00;100566.34;4872806;29;20512;-75
2021/12/05 14:14:41;;;;;;;60.75;36.28;;;;;;;0.54;100.00;100570.59;4887991;29;20444;-75
2021/12/05 14:17:32;;;;;;;60.10;36.60;;;;;;;0.48;100.00;100574.34;4861871;29;20732;-76
2021/12/05 14:20:07;;;;;;;60.00;36.65;;;;;;;0.53;100.00;100580.09;4874698;29;20121;-76
2021/12/05 14:22:34;;;;;;;63.60;37.10;;;;;;;0.45;100.00;100582.25;4888532;29;20044;-75
2021/12/05 14:25:09;;;;;;;59.97;35.83;;;;;;;0.51;100.00;100584.50;4874685;29;20510;-76
2021/12/05 14:27:37;;;;;;;62.10;37.22;;;;;;;0.44;100.00;100587.50;4891055;29;20727;-76
2021/12/05 14:30:10;;;;;;;60.75;36.53;;;;;;;0.45;100.00;100591.75;4865580;29;20048;-76
2021/12/05 14:32:39;;;;;;;61.10;36.65;;;;;;;0.38;100.00;100602.41;4881993;29;20040;-75
2021/12/05 14:35:12;;;;;;;59.58;34.88;;;;;;;0.44;100.00;100608.97;4897158;29;20072;-75
2021/12/05 14:37:38;;;;;;;;;;;;;;;0.43;100.00;100611.66;4872866;29;20458;-76
2021/12/05 14:40:12;;;;;;;53.55;33.38;;;;;;;0.41;100.00;100618.63;4880802;29;19915;-75
2021/12/05 14:42:41;;;;;;;53.55;33.78;;;;;;;0.35;100.00;100612.88;4881814;29;20641;-75
2021/12/05 14:45:15;;;;;;;61.28;34.53;;;;;;;0.32;100.00;100625.97;4895587;29;20044;-75
2021/12/05 14:47:44;;;;;;;58.17;34.53;;;;;;;0.28;100.00;100626.22;4873486;29;20073;-76
2021/12/05 14:50:26;;;;;;;56.38;33.13;;;;;;;0.30;100.00;100629.53;4864336;29;20076;-76
2021/12/05 14:52:55;;;;;;;55.53;33.65;;;;;;;0.21;100.00;100628.31;4888356;29;20032;-76
2021/12/05 14:55:23;;;;;;;57.15;34.15;;;;;;;0.21;100.00;100642.94;4892755;29;20044;-76
2021/12/05 14:57:52;;;;;;;52.95;33.33;;;;;;;0.18;100.00;100636.19;4877609;29;20040;-75
2021/12/05 15:00:35;;;;;;;54.17;32.75;;;;;;;0.18;100.00;100649.09;4895865;29;20032;-76
2021/12/05 15:03:11;;;;;;;52.42;31.60;;;;;;;0.13;100.00;100646.78;4896805;29;20059;-76
2021/12/05 15:05:38;;;;;;;50.55;30.98;;;;;;;0.07;100.00;100644.50;4894377;29;20179;-76
2021/12/05 15:08:10;;;;;;;53.38;32.45;;;;;;;-0.01;100.00;100657.81;4881365;29;20156;-76
2021/12/05 15:10:37;;;;;;;52.42;32.58;;;;;;;-0.01;100.00;100655.22;4879506;29;20036;-74
2021/12/05 15:13:03;;;;;;;52.05;31.52;;;;;;;-0.07;100.00;100658.13;4875555;29;20045;-76
2021/12/05 15:15:29;;;;;;;52.65;30.88;;;;;;;-0.05;100.00;100660.63;4893344;29;20041;-75
2021/12/05 15:17:56;;;;;;;48.72;29.55;;;;;;;-0.10;100.00;100663.44;4880220;29;20037;-76
2021/12/05 15:20:27;;;;;;;50.08;29.13;;;;;;;-0.10;100.00;100666.03;4897619;29;20048;-76
2021/12/05 15:22:59;;;;;;;47.63;28.40;;;;;;;-0.07;100.00;100671.03;4883328;29;20040;-76
2021/12/05 15:25:27;;;;;;;42.92;27.77;;;;;;;-0.21;100.00;100679.50;4900855;29;20044;-76
2021/12/05 15:27:54;;;;;;;44.50;27.42;;;;;;;-0.24;100.00;100676.22;4884998;29;20055;-75
2021/12/05 15:30:30;;;;;;;44.60;27.73;;;;;;;-0.25;100.00;100684.88;4884627;29;20126;-76
2021/12/05 15:32:58;;;;;;;47.05;29.25;;;;;;;-0.28;100.00;100691.03;4898573;29;20033;-76
2021/12/05 15:35:26;;;;;;;47.22;27.92;;;;;;;-0.30;100.00;100699.72;4882271;29;20095;-75
2021/12/05 15:38:13;;;;;;;46.83;27.85;;;;;;;-0.38;100.00;100694.97;4879906;29;20565;-76
2021/12/05 15:40:42;;;;;;;44.63;27.17;;;;;;;-0.41;100.00;100708.03;4876959;29;20099;-76
2021/12/05 15:43:13;;;;;;;49.97;28.23;;;;;;;-0.42;100.00;100714.91;4893886;29;20048;-75
2021/12/05 15:45:40;;;;;;;47.88;27.42;;;;;;;-0.46;100.00;100715.97;4880639;29;20039;-76
2021/12/05 15:48:06;;;;;;;54.15;30.08;;;;;;;-0.60;100.00;100718.41;4879791;29;20037;-75
2021/12/05 15:50:35;;;;;;;48.63;28.23;;;;;;;-0.62;100.00;100721.06;4882109;29;20605;-77
2021/12/05 15:53:10;;;;;;;46.67;27.20;;;;;;;-0.60;100.00;100723.56;4897125;29;20048;-76
2021/12/05 15:55:45;;;;;;;46.75;27.55;;;;;;;-0.59;100.00;100720.06;4896768;29;20590;-76
2021/12/05 15:58:25;;;;;;;49.55;27.30;;;;;;;-0.61;100.00;100727.03;4893127;29;20048;-76
2021/12/05 16:00:59;;;;;;;52.00;29.23;;;;;;;-0.60;100.00;100736.44;4867505;29;20037;-76
2021/12/05 16:03:37;;;;;;;56.13;28.90;;;;;;;-0.61;100.00;100742.50;4880954;29;20040;-76
2021/12/05 16:06:04;;;;;;;57.10;30.30;;;;;;;-0.62;100.00;100746.00;4875273;29;20043;-76
2021/12/05 16:08:31;;;;;;;58.05;29.48;;;;;;;-0.63;100.00;100746.88;4896836;29;20049;-77
2021/12/05 16:10:59;;;;;;;58.65;30.10;;;;;;;-0.63;100.00;100757.19;4897891;29;20033;-76
2021/12/05 16:13:31;;;;;;;54.08;29.55;;;;;;;-0.61;100.00;100758.78;4894621;29;20119;-76
2021/12/05 16:16:08;;;;;;;66.38;31.02;;;;;;;-0.61;100.00;100755.38;4896447;29;20063;-75
2021/12/05 16:18:36;;;;;;;62.97;31.73;;;;;;;-0.59;100.00;100771.59;4867120;29;20058;-76
2021/12/05 16:21:15;;;;;;;56.88;31.98;;;;;;;-0.50;100.00;100767.75;4862536;29;20044;-77
2021/12/05 16:23:41;;;;;;;57.45;32.05;;;;;;;-0.49;100.00;100774.53;4860851;29;20036;-76
2021/12/05 16:26:09;;;;;;;55.35;30.75;;;;;;;-0.43;100.00;100772.50;4880580;29;20064;-75
2021/12/05 16:28:40;;;;;;;55.72;30.85;;;;;;;-0.44;100.00;100780.31;4879587;29;20044;-76
2021/12/05 16:31:08;;;;;;;54.38;30.73;;;;;;;-0.47;100.00;100783.03;4878558;29;20045;-77
2021/12/05 16:33:34;;;;;;;56.45;31.73;;;;;;;-0.40;100.00;100784.41;4877976;29;20051;-78
2021/12/05 16:36:01;;;;;;;50.42;29.60;;;;;;;-0.42;100.00;100783.66;4874451;29;20041;-75